createdAt,value
2023-01-03T00:01:56.009Z,36.70
2023-01-03T00:04:23.757Z,36.90
2023-01-03T00:06:53.573Z,41.20
2023-01-03T00:09:23.937Z,50.40
2023-01-03T00:12:12.936Z,53.23
2023-01-03T00:14:43.309Z,51.42
2023-01-03T00:17:12.533Z,34.13
2023-01-03T00:19:44.661Z,40.28
2023-01-03T00:22:15.259Z,50.70
2023-01-03T00:24:47.799Z,54.65
2023-01-03T00:27:16.648Z,56.15
2023-01-03T00:29:44.922Z,70.80
2023-01-03T00:32:13.053Z,70.08
2023-01-03T00:34:44.434Z,69.50
2023-01-03T00:37:14.076Z,67.97
2023-01-03T00:39:43.369Z,82.65
2023-01-03T00:42:11.268Z,75.45
2023-01-03T00:44:39.134Z,79.55
2023-01-03T00:47:06.750Z,78.60
2023-01-03T00:49:34.693Z,80.72
2023-01-03T00:52:02.424Z,75.80
2023-01-03T00:54:29.919Z,83.95
2023-01-03T00:56:57.551Z,87.72
2023-01-03T00:59:26.616Z,78.40
2023-01-03T01:01:56.777Z,79.20
2023-01-03T01:04:31.035Z,75.37
2023-01-03T01:07:02.246Z,68.25
2023-01-03T01:09:34.213Z,67.65
2023-01-03T01:12:02.526Z,56.15
2023-01-03T01:14:33.198Z,56.75
2023-01-03T01:17:04.906Z,49.20
2023-01-03T01:19:39.984Z,56.00
2023-01-03T01:22:08.488Z,45.78
2023-01-03T01:24:36.348Z,40.78
2023-01-03T01:27:04.367Z,35.08
2023-01-03T01:29:32.279Z,41.53
2023-01-03T01:32:01.244Z,42.50
2023-01-03T01:34:29.981Z,28.80
2023-01-03T01:36:57.811Z,26.70
2023-01-03T01:39:28.700Z,22.20
2023-01-03T01:42:20.572Z,23.73
2023-01-03T01:44:57.303Z,23.67
2023-01-03T01:47:54.510Z,20.85
2023-01-03T01:50:38.962Z,23.57
2023-01-03T01:53:14.877Z,22.22
2023-01-03T01:56:03.026Z,21.15
2023-01-03T01:58:37.555Z,19.98
2023-01-03T02:01:12.163Z,41.23
2023-01-03T02:03:43.231Z,32.67
2023-01-03T02:06:15.074Z,28.23
2023-01-03T02:08:42.733Z,31.42
2023-01-03T02:11:27.973Z,38.88
2023-01-03T02:14:20.761Z,28.62
2023-01-03T02:16:56.682Z,19.62
2023-01-03T02:20:04.791Z,16.62
2023-01-03T02:23:16.669Z,14.00
2023-01-03T02:26:29.231Z,11.80
2023-01-03T02:29:18.992Z,11.33
2023-01-03T02:32:28.220Z,11.55
2023-01-03T02:35:04.007Z,11.08
2023-01-03T02:38:09.291Z,9.90
2023-01-03T02:40:49.821Z,10.00
2023-01-03T02:43:34.845Z,11.40
2023-01-03T02:46:22.662Z,12.88
2023-01-03T02:49:06.416Z,21.12
2023-01-03T02:51:44.874Z,16.45
2023-01-03T02:54:17.930Z,14.45
2023-01-03T02:56:50.986Z,12.93
2023-01-03T02:59:24.762Z,15.53
2023-01-03T03:01:56.763Z,14.65
2023-01-03T03:04:26.334Z,15.05
2023-01-03T03:07:05.651Z,15.45
2023-01-03T03:09:40.559Z,15.93
2023-01-03T03:12:31.389Z,18.00
2023-01-03T03:15:00.518Z,16.25
2023-01-03T03:17:33.919Z,18.02
2023-01-03T03:20:33.220Z,17.65
2023-01-03T03:23:33.597Z,15.32
2023-01-03T03:26:25.980Z,15.38
2023-01-03T03:29:10.755Z,15.15
2023-01-03T03:31:50.689Z,15.18
2023-01-03T03:34:29.355Z,11.85
2023-01-03T03:37:08.038Z,12.33
2023-01-03T03:39:55.357Z,11.85
2023-01-03T03:43:08.862Z,12.40
2023-01-03T03:45:43.474Z,15.13
2023-01-03T03:48:36.289Z,15.35
2023-01-03T03:51:12.470Z,12.80
2023-01-03T03:53:42.405Z,14.40
2023-01-03T03:56:17.223Z,15.70
2023-01-03T03:58:49.553Z,15.40
2023-01-03T04:01:20.566Z,15.03
2023-01-03T04:03:51.472Z,14.13
2023-01-03T04:06:24.510Z,21.82
2023-01-03T04:08:52.230Z,18.52
2023-01-03T04:11:20.440Z,15.23
2023-01-03T04:13:48.113Z,15.72
2023-01-03T04:16:15.737Z,16.40
2023-01-03T04:18:43.474Z,19.42
2023-01-03T04:21:18.741Z,16.20
2023-01-03T04:23:43.195Z,15.93
2023-01-03T04:26:11.005Z,19.37
2023-01-03T04:28:38.911Z,22.02
2023-01-03T04:31:06.506Z,20.20
2023-01-03T04:33:34.175Z,23.98
2023-01-03T04:36:01.723Z,23.77
2023-01-03T04:38:29.421Z,26.27
2023-01-03T04:41:06.336Z,22.25
2023-01-03T04:43:52.713Z,22.30
2023-01-03T04:46:20.843Z,41.98
2023-01-03T04:48:48.733Z,38.08
2023-01-03T04:51:16.469Z,33.83
2023-01-03T04:53:44.087Z,22.75
2023-01-03T04:56:11.832Z,22.25
2023-01-03T04:58:39.372Z,27.05
2023-01-03T05:01:07.764Z,27.65
2023-01-03T05:03:37.582Z,28.25
2023-01-03T05:06:08.223Z,28.10
2023-01-03T05:08:35.875Z,28.60
2023-01-03T05:11:03.881Z,31.50
2023-01-03T05:13:33.393Z,30.52
2023-01-03T05:16:13.308Z,29.63
2023-01-03T05:18:42.046Z,27.77
2023-01-03T05:21:35.786Z,24.30
2023-01-03T05:24:22.956Z,21.85
2023-01-03T05:26:52.153Z,24.10
2023-01-03T05:29:21.608Z,22.48
2023-01-03T05:31:49.649Z,19.52
2023-01-03T05:34:17.274Z,22.52
2023-01-03T05:36:45.178Z,24.27
2023-01-03T05:39:13.631Z,24.23
2023-01-03T05:41:59.736Z,31.55
2023-01-03T05:44:32.713Z,23.80
2023-01-03T05:47:02.150Z,24.37
2023-01-03T05:49:29.900Z,26.27
2023-01-03T05:51:57.682Z,23.12
2023-01-03T05:54:25.401Z,25.75
2023-01-03T05:56:53.286Z,31.30
2023-01-03T05:59:22.149Z,35.48
2023-01-03T06:01:50.611Z,34.80
2023-01-03T06:04:19.643Z,35.60
2023-01-03T06:06:47.949Z,35.38
2023-01-03T06:09:15.758Z,32.40
2023-01-03T06:11:43.566Z,36.98
2023-01-03T06:14:11.590Z,39.10
2023-01-03T06:16:58.159Z,38.67
2023-01-03T06:19:25.777Z,38.78
2023-01-03T06:21:53.140Z,33.98
2023-01-03T06:24:20.723Z,35.88
2023-01-03T06:26:48.404Z,50.95
2023-01-03T06:29:16.303Z,44.00
2023-01-03T06:31:44.198Z,39.13
2023-01-03T06:34:11.669Z,39.55
2023-01-03T06:36:39.288Z,86.63
2023-01-03T06:39:08.268Z,91.82
2023-01-03T06:41:36.139Z,76.65
2023-01-03T06:44:04.013Z,84.35
2023-01-03T06:46:49.884Z,76.77
2023-01-03T06:49:36.486Z,93.55
2023-01-03T06:52:27.184Z,125.67
2023-01-03T06:54:54.867Z,80.95
2023-01-03T06:57:26.221Z,95.85
2023-01-03T06:59:51.916Z,108.52
2023-01-03T07:02:19.870Z,73.02
2023-01-03T07:04:47.774Z,42.00
2023-01-03T07:07:15.477Z,152.38
2023-01-03T07:09:43.049Z,50.85
2023-01-03T07:12:29.263Z,46.10
2023-01-03T07:14:56.793Z,41.05
2023-01-03T07:17:24.355Z,41.28
2023-01-03T07:19:52.092Z,42.03
2023-01-03T07:22:19.661Z,36.98
2023-01-03T07:24:47.232Z,39.40
2023-01-03T07:27:14.829Z,40.80
2023-01-03T07:29:42.417Z,40.12
2023-01-03T07:32:09.957Z,36.20
2023-01-03T07:34:37.513Z,38.58
2023-01-03T07:37:05.075Z,42.03
2023-01-03T07:39:32.648Z,48.40
2023-01-03T07:42:18.642Z,41.23
2023-01-03T07:44:46.190Z,47.17
2023-01-03T07:47:14.219Z,37.90
2023-01-03T07:49:42.055Z,31.55
2023-01-03T07:52:09.789Z,25.25
2023-01-03T07:54:37.521Z,25.00
2023-01-03T07:57:05.094Z,25.20
2023-01-03T07:59:32.685Z,27.45
2023-01-03T08:01:59.970Z,32.33
2023-01-03T08:04:27.952Z,37.33
2023-01-03T08:06:55.616Z,32.25
2023-01-03T08:09:41.648Z,32.60
2023-01-03T08:12:29.669Z,33.42
2023-01-03T08:14:57.226Z,25.23
2023-01-03T08:17:24.456Z,25.43
2023-01-03T08:19:51.790Z,22.07
2023-01-03T08:22:19.150Z,19.57
2023-01-03T08:24:46.572Z,20.32
2023-01-03T08:27:14.140Z,23.12
2023-01-03T08:29:41.573Z,21.25
2023-01-03T08:32:09.086Z,17.95
2023-01-03T08:34:37.784Z,20.82
2023-01-03T08:37:09.613Z,22.58
2023-01-03T08:39:45.627Z,30.37
2023-01-03T08:42:16.830Z,24.77
2023-01-03T08:44:44.460Z,22.37
2023-01-03T08:47:14.210Z,30.05
2023-01-03T08:49:42.096Z,23.00
2023-01-03T08:52:09.622Z,19.50
2023-01-03T08:54:38.645Z,23.12
2023-01-03T08:57:06.364Z,21.70
2023-01-03T08:59:33.907Z,25.52
2023-01-03T09:02:02.345Z,24.02
2023-01-03T09:04:29.930Z,19.98
2023-01-03T09:06:57.547Z,21.62
2023-01-03T09:09:24.876Z,21.73
2023-01-03T09:11:52.315Z,19.27
2023-01-03T09:14:19.983Z,23.65
2023-01-03T09:16:49.549Z,26.37
2023-01-03T09:19:17.338Z,22.58
2023-01-03T09:21:44.621Z,28.35
2023-01-03T09:24:12.557Z,23.38
2023-01-03T09:26:40.272Z,24.90
2023-01-03T09:29:07.823Z,23.83
2023-01-03T09:31:36.572Z,23.10
2023-01-03T09:34:04.850Z,24.92
2023-01-03T09:36:32.675Z,27.82
2023-01-03T09:39:00.244Z,24.02
2023-01-03T09:41:28.184Z,23.98
2023-01-03T09:44:00.265Z,24.35
2023-01-03T09:46:29.333Z,21.48
2023-01-03T09:48:57.460Z,21.73
2023-01-03T09:51:59.723Z,24.65
2023-01-03T09:54:53.321Z,26.40
2023-01-03T09:57:55.231Z,27.15
2023-01-03T10:00:52.543Z,28.45
2023-01-03T10:03:50.430Z,23.47
2023-01-03T10:06:36.813Z,25.08
2023-01-03T10:09:38.495Z,21.52
2023-01-03T10:12:47.355Z,21.12
2023-01-03T10:15:22.929Z,22.62
2023-01-03T10:18:40.299Z,24.20
2023-01-03T10:21:19.347Z,24.15
2023-01-03T10:23:48.670Z,25.23
2023-01-03T10:26:16.107Z,23.77
2023-01-03T10:28:46.264Z,21.25
2023-01-03T10:31:34.269Z,18.48
2023-01-03T10:34:05.001Z,20.57
2023-01-03T10:36:32.549Z,20.65
2023-01-03T10:39:07.943Z,20.08
2023-01-03T10:41:45.680Z,20.50
2023-01-03T10:44:32.382Z,21.62
2023-01-03T10:47:14.407Z,18.73
2023-01-03T10:49:47.001Z,24.10
2023-01-03T10:52:21.687Z,18.32
2023-01-03T10:54:56.465Z,19.62
2023-01-03T10:57:46.476Z,25.08
2023-01-03T11:00:28.527Z,25.62
2023-01-03T11:03:03.284Z,21.97
2023-01-03T11:05:31.250Z,22.27
2023-01-03T11:08:03.189Z,23.10
2023-01-03T11:10:36.280Z,22.90
2023-01-03T11:13:39.777Z,24.50
2023-01-03T11:16:17.684Z,22.33
2023-01-03T11:19:01.720Z,21.17
2023-01-03T11:21:55.300Z,22.87
2023-01-03T11:24:52.557Z,22.60
2023-01-03T11:27:28.436Z,22.27
2023-01-03T11:30:20.286Z,21.50
2023-01-03T11:33:29.139Z,18.52
2023-01-03T11:36:27.133Z,21.68
2023-01-03T11:39:24.676Z,22.00
2023-01-03T11:42:13.708Z,19.70
2023-01-03T11:45:26.546Z,19.15
2023-01-03T11:48:20.093Z,22.55
2023-01-03T11:50:59.449Z,23.27
2023-01-03T11:53:37.303Z,21.90
2023-01-03T11:56:36.866Z,22.50
2023-01-03T11:59:19.151Z,23.75
2023-01-03T12:02:16.037Z,27.93
2023-01-03T12:05:35.765Z,22.62
2023-01-03T12:08:23.962Z,21.17
2023-01-03T12:10:59.511Z,24.67
2023-01-03T12:13:44.266Z,25.72
2023-01-03T12:16:21.064Z,20.80
2023-01-03T12:19:12.340Z,20.15
2023-01-03T12:21:46.388Z,18.07
2023-01-03T12:24:46.472Z,20.97
2023-01-03T12:27:20.331Z,25.25
2023-01-03T12:30:27.648Z,23.95
2023-01-03T12:33:18.887Z,24.05
2023-01-03T12:36:07.224Z,26.33
2023-01-03T12:38:42.657Z,27.65
2023-01-03T12:41:40.114Z,24.80
2023-01-03T12:44:21.527Z,25.48
2023-01-03T12:46:54.404Z,27.25
2023-01-03T12:49:30.489Z,25.97
2023-01-03T12:51:59.038Z,28.95
2023-01-03T12:54:43.966Z,21.68
2023-01-03T12:57:44.699Z,21.33
2023-01-03T13:00:44.104Z,26.12
2023-01-03T13:03:25.638Z,28.83
2023-01-03T13:06:02.369Z,26.73
2023-01-03T13:08:48.562Z,22.60
2023-01-03T13:11:26.933Z,24.85
2023-01-03T13:14:23.924Z,30.45
2023-01-03T13:17:16.663Z,22.60
2023-01-03T13:19:58.173Z,23.87
2023-01-03T13:22:51.613Z,22.48
2023-01-03T13:25:40.016Z,22.93
2023-01-03T13:28:22.425Z,21.02
2023-01-03T13:30:53.950Z,26.12
2023-01-03T13:33:21.711Z,28.17
2023-01-03T13:35:54.763Z,33.02
2023-01-03T13:38:35.334Z,36.20
2023-01-03T13:41:18.185Z,30.57
2023-01-03T13:43:40.246Z,28.57
2023-01-03T13:46:19.536Z,29.48
2023-01-03T13:49:02.722Z,29.63
2023-01-03T13:51:46.577Z,27.22
2023-01-03T13:54:19.603Z,22.52
2023-01-03T13:56:58.031Z,23.25
2023-01-03T13:59:47.087Z,23.77
2023-01-03T14:02:40.348Z,24.15
2023-01-03T14:05:58.307Z,23.92
2023-01-03T14:08:37.599Z,21.62
2023-01-03T14:11:28.759Z,22.25
2023-01-03T14:14:07.682Z,23.47
2023-01-03T14:16:58.268Z,29.42
2023-01-03T14:19:37.839Z,24.87
2023-01-03T14:22:28.896Z,27.32
2023-01-03T14:24:56.963Z,28.17
2023-01-03T14:27:40.787Z,26.20
2023-01-03T14:30:24.572Z,35.83
2023-01-03T14:32:52.521Z,38.30
2023-01-03T14:35:39.015Z,33.28
2023-01-03T14:38:29.241Z,35.98
2023-01-03T14:40:58.117Z,35.15
2023-01-03T14:43:28.659Z,60.95
2023-01-03T14:46:01.457Z,95.97
2023-01-03T14:48:29.068Z,94.15
2023-01-03T14:51:03.326Z,65.05
2023-01-03T14:53:34.075Z,45.28
2023-01-03T14:56:02.812Z,42.43
2023-01-03T14:58:39.819Z,41.55
2023-01-03T15:01:10.930Z,39.00
2023-01-03T15:03:43.522Z,44.25
2023-01-03T15:06:25.537Z,44.67
2023-01-03T15:08:57.574Z,44.08
2023-01-03T15:11:40.964Z,35.30
2023-01-03T15:14:13.029Z,34.85
2023-01-03T15:16:42.664Z,26.52
2023-01-03T15:19:21.735Z,27.35
2023-01-03T15:21:49.744Z,27.15
2023-01-03T15:24:23.092Z,27.87
2023-01-03T15:29:30.496Z,54.65
2023-01-03T15:32:00.825Z,56.55
2023-01-03T15:34:41.485Z,57.40
2023-01-03T15:37:19.826Z,48.73
2023-01-03T15:39:52.076Z,35.98
2023-01-03T15:42:45.195Z,29.27
2023-01-03T15:45:22.668Z,36.68
2023-01-03T15:47:57.338Z,46.50
2023-01-03T15:50:49.357Z,61.63
2023-01-03T15:53:30.447Z,60.03
2023-01-03T15:56:12.158Z,58.05
2023-01-03T15:58:40.440Z,60.40
2023-01-03T16:01:09.975Z,62.30
2023-01-03T16:03:38.247Z,72.22
2023-01-03T16:06:06.077Z,94.32
2023-01-03T16:08:36.945Z,175.22
2023-01-03T16:11:20.313Z,244.20
2023-01-03T16:13:55.945Z,202.78
2023-01-03T16:16:35.052Z,98.20
2023-01-03T16:19:04.126Z,59.65
2023-01-03T16:21:32.372Z,51.92
2023-01-03T16:24:01.888Z,58.15
2023-01-03T16:26:29.609Z,64.03
2023-01-03T16:28:58.797Z,71.00
2023-01-03T16:31:32.766Z,62.50
2023-01-03T16:34:02.778Z,69.20
2023-01-03T16:36:38.928Z,66.70
2023-01-03T16:39:15.009Z,75.10
2023-01-03T16:41:48.418Z,80.40
2023-01-03T16:44:16.227Z,72.00
2023-01-03T16:46:45.164Z,56.28
2023-01-03T16:49:12.985Z,62.27
2023-01-03T16:51:47.323Z,60.67
2023-01-03T16:54:13.214Z,59.63
2023-01-03T16:56:41.110Z,56.37
2023-01-03T16:59:16.052Z,60.90
2023-01-03T17:01:43.871Z,53.08
2023-01-03T17:04:12.152Z,48.30
2023-01-03T17:06:41.135Z,50.35
2023-01-03T17:09:18.706Z,44.35
2023-01-03T17:11:47.451Z,43.83
2023-01-03T17:14:21.203Z,44.85
2023-01-03T17:16:50.230Z,38.58
2023-01-03T17:21:55.251Z,43.30
2023-01-03T17:24:26.685Z,43.17
2023-01-03T17:27:03.725Z,51.25
2023-01-03T17:29:31.658Z,50.08
2023-01-03T17:31:59.136Z,55.55
2023-01-03T17:34:30.461Z,54.60
2023-01-03T17:37:00.546Z,66.20
2023-01-03T17:39:28.250Z,68.45
2023-01-03T17:42:12.078Z,68.05
2023-01-03T17:44:39.879Z,73.42
2023-01-03T17:47:41.321Z,72.72
2023-01-03T17:50:09.397Z,75.30
2023-01-03T17:52:38.088Z,69.17
2023-01-03T17:55:22.030Z,59.75
2023-01-03T17:57:50.415Z,58.92
2023-01-03T18:00:28.337Z,59.15
2023-01-03T18:02:56.941Z,61.42
2023-01-03T18:05:28.038Z,62.83
2023-01-03T18:07:59.063Z,56.98
2023-01-03T18:10:45.842Z,47.48
2023-01-03T18:13:32.343Z,47.00
2023-01-03T18:16:00.402Z,46.88
2023-01-03T18:18:29.302Z,39.23
2023-01-03T18:20:57.337Z,41.95
2023-01-03T18:23:32.490Z,43.30
2023-01-03T18:26:04.367Z,45.38
2023-01-03T18:28:32.597Z,49.98
2023-01-03T18:31:00.444Z,56.08
2023-01-03T18:33:28.065Z,56.30
2023-01-03T18:35:56.427Z,56.15
2023-01-03T18:38:36.111Z,59.25
2023-01-03T18:41:05.746Z,59.98
2023-01-03T18:43:33.794Z,61.10
2023-01-03T18:46:01.611Z,54.77
2023-01-03T18:48:29.383Z,55.30
2023-01-03T18:50:59.396Z,53.75
2023-01-03T18:53:33.324Z,58.28
2023-01-03T18:56:02.387Z,56.58
2023-01-03T18:58:37.339Z,62.00
2023-01-03T19:01:06.191Z,63.55
2023-01-03T19:03:35.403Z,57.48
2023-01-03T19:06:14.685Z,61.15
2023-01-03T19:08:42.789Z,63.05
2023-01-03T19:11:18.281Z,57.95
2023-01-03T19:13:50.804Z,55.38
2023-01-03T19:16:25.862Z,57.10
2023-01-03T19:18:54.352Z,54.55
2023-01-03T19:21:23.377Z,59.83
2023-01-03T19:23:59.367Z,53.38
2023-01-03T19:26:40.926Z,54.53
2023-01-03T19:29:19.397Z,47.73
2023-01-03T19:31:49.590Z,54.20
2023-01-03T19:34:21.075Z,49.85
2023-01-03T19:36:49.412Z,51.40
2023-01-03T19:39:23.999Z,50.90
2023-01-03T19:42:09.525Z,45.67
2023-01-03T19:44:37.247Z,49.30
2023-01-03T19:47:10.225Z,58.80
2023-01-03T19:49:37.696Z,50.12
2023-01-03T19:52:05.247Z,52.00
2023-01-03T19:54:34.154Z,78.17
2023-01-03T19:57:01.622Z,76.33
2023-01-03T19:59:36.767Z,73.67
2023-01-03T20:02:25.018Z,61.95
2023-01-03T20:04:45.374Z,47.53
2023-01-03T20:07:14.893Z,44.15
2023-01-03T20:09:42.545Z,45.90
2023-01-03T20:12:18.603Z,46.23
2023-01-03T20:14:50.359Z,46.65
2023-01-03T20:17:26.050Z,47.93
2023-01-03T20:19:53.504Z,45.50
2023-01-03T20:23:03.617Z,50.45
2023-01-03T20:24:52.399Z,47.40
2023-01-03T20:27:19.940Z,53.40
2023-01-03T20:29:47.717Z,54.65
2023-01-03T20:32:15.471Z,54.05
2023-01-03T20:34:43.115Z,56.77
2023-01-03T20:37:15.743Z,53.55
2023-01-03T20:39:44.690Z,51.70
2023-01-03T20:42:24.273Z,51.65
2023-01-03T20:44:51.658Z,51.37
2023-01-03T20:47:23.457Z,50.23
2023-01-03T20:49:51.063Z,53.50
2023-01-03T20:52:18.711Z,50.98
2023-01-03T20:54:46.256Z,54.45
2023-01-03T20:57:15.990Z,63.55
2023-01-03T20:59:44.233Z,66.42
2023-01-03T21:02:12.636Z,72.05
2023-01-03T21:04:40.858Z,103.42
2023-01-03T21:07:19.800Z,82.12
2023-01-03T21:09:47.550Z,81.63
2023-01-03T21:12:15.091Z,81.72
2023-01-03T21:14:42.769Z,92.30
2023-01-03T21:17:10.606Z,94.13
2023-01-03T21:19:38.683Z,110.70
2023-01-03T21:22:11.815Z,102.15
2023-01-03T21:24:42.723Z,89.05
2023-01-03T21:27:08.846Z,95.67
2023-01-03T21:29:36.661Z,100.12
2023-01-03T21:32:04.976Z,102.85
2023-01-03T21:34:32.475Z,93.52
2023-01-03T21:36:59.923Z,89.37
2023-01-03T21:39:27.503Z,85.83
2023-01-03T21:42:13.521Z,86.60
2023-01-03T21:44:41.242Z,67.50
2023-01-03T21:47:09.200Z,59.30
2023-01-03T21:49:36.783Z,57.80
2023-01-03T21:52:04.898Z,56.05
2023-01-03T21:54:32.723Z,62.30
2023-01-03T21:57:00.667Z,64.58
2023-01-03T21:59:30.496Z,66.42
2023-01-03T22:02:17.187Z,61.95
2023-01-03T22:04:45.516Z,57.13
2023-01-03T22:07:13.066Z,55.25
2023-01-03T22:09:58.922Z,57.00
2023-01-03T22:12:26.457Z,51.15
2023-01-03T22:14:54.211Z,49.40
2023-01-03T22:17:21.715Z,46.15
2023-01-03T22:19:49.453Z,44.27
2023-01-03T22:22:16.901Z,40.05
2023-01-03T22:24:44.551Z,48.35
2023-01-03T22:27:12.245Z,44.65
2023-01-03T22:29:39.970Z,45.78
2023-01-03T22:32:07.785Z,47.43
2023-01-03T22:34:38.615Z,43.75
2023-01-03T22:37:06.173Z,44.53
2023-01-03T22:39:33.730Z,49.23
2023-01-03T22:42:01.181Z,46.00
2023-01-03T22:44:28.627Z,46.33
2023-01-03T22:46:56.082Z,50.92
2023-01-03T22:49:24.035Z,49.93
2023-01-03T22:51:51.733Z,50.15
2023-01-03T22:54:19.495Z,51.20
2023-01-03T22:56:47.412Z,51.30
2023-01-03T22:59:15.487Z,53.38
2023-01-03T23:01:43.550Z,48.78
2023-01-03T23:04:11.615Z,52.83
2023-01-03T23:06:39.275Z,47.13
2023-01-03T23:09:07.030Z,48.58
2023-01-03T23:11:53.348Z,52.03
2023-01-03T23:14:23.255Z,48.87
2023-01-03T23:16:51.916Z,51.25
2023-01-03T23:19:23.551Z,53.48
2023-01-03T23:21:52.903Z,53.73
2023-01-03T23:24:24.710Z,48.52
2023-01-03T23:26:53.350Z,44.65
2023-01-03T23:29:21.695Z,44.70
2023-01-03T23:31:49.298Z,47.05
2023-01-03T23:34:17.125Z,48.45
2023-01-03T23:36:44.950Z,58.80
2023-01-03T23:39:15.742Z,44.85
2023-01-03T23:41:43.595Z,55.48
2023-01-03T23:44:11.490Z,55.55
2023-01-03T23:46:39.089Z,52.67
2023-01-03T23:49:06.903Z,63.20
2023-01-03T23:51:36.205Z,59.85
2023-01-03T23:54:03.895Z,51.80
2023-01-03T23:56:31.755Z,79.65
2023-01-03T23:58:59.487Z,119.85
